Terminal Aerodrome Forecast
Issued by NWS Quad Cities IA IL

Home | Current Version | Previous Version | Text Only | Print | Product List | Glossary On
Versions: 1 2 3 4 5 6 7 8 9 10 11 12 13 14 15
000
FTUS43 KDVN 201730
TAFMLI
TAF
KMLI 201730Z 2018/2118 04008KT P6SM -RA OVC050
      TEMPO 2018/2021 5SM -RA BR OVC035
     FM202100 05006KT P6SM VCSH SCT020 OVC035
     FM210000 02005KT P6SM BKN050
     FM210800 29004KT P6SM BKN100=

USA.gov is the U.S. government's official web portal to all federal, state and local government web resources and services.